Time;durP1;ratioP1;P1;durP2;ratioP2;P2;SDS_P1;SDS_P2;PMS_P1;PMS_P2;Temp;Humidity;BMP_temperature;BMP_pressure;BME280_temperature;BME280_humidity;BME280_pressure;Samples;Min_cycle;Max_cycle;Signal;HPM_P1;HPM_P2
2022/08/14 00:01:30;;;;;;;;;;;14.40;99.90;;;;;;5052982;28;20295;-57
2022/08/14 00:03:57;;;;;;;5.18;2.15;;;14.40;99.90;;;;;;5055508;28;20320;-57
2022/08/14 00:06:24;;;;;;;5.63;2.42;;;14.40;99.90;;;;;;5055537;28;20070;-57
2022/08/14 00:08:55;;;;;;;2.40;1.70;;;14.30;99.90;;;;;;5056662;28;20067;-53
2022/08/14 00:11:26;;;;;;;4.03;2.95;;;14.30;99.90;;;;;;5055628;28;20037;-55
2022/08/14 00:14:01;;;;;;;3.88;2.10;;;14.30;99.90;;;;;;5053389;28;20565;-55
2022/08/14 00:16:28;;;;;;;2.08;1.85;;;14.30;99.90;;;;;;5034061;28;20041;-56
2022/08/14 00:19:10;;;;;;;3.17;2.40;;;14.30;99.90;;;;;;5037117;28;20048;-55
2022/08/14 00:21:49;;;;;;;2.53;2.10;;;14.20;99.90;;;;;;5035751;28;20048;-56
2022/08/14 00:24:21;;;;;;;2.75;2.08;;;14.20;99.90;;;;;;5036336;28;20059;-55
2022/08/14 00:26:49;;;;;;;2.70;2.05;;;14.10;99.90;;;;;;5036163;28;20110;-57
2022/08/14 00:29:20;;;;;;;2.78;2.25;;;14.00;99.90;;;;;;5034349;28;20045;-56
2022/08/14 00:31:51;;;;;;;6.00;2.10;;;14.00;99.90;;;;;;5036156;28;20484;-56
2022/08/14 00:34:22;;;;;;;3.03;1.95;;;14.00;99.90;;;;;;5033930;28;20044;-55
2022/08/14 00:37:04;;;;;;;2.67;2.05;;;13.90;99.90;;;;;;5036276;28;20049;-56
2022/08/14 00:39:32;;;;;;;5.00;2.35;;;13.90;99.90;;;;;;5036148;28;20045;-57
2022/08/14 00:41:59;;;;;;;4.22;2.35;;;13.90;99.90;;;;;;5035696;28;20076;-56
2022/08/14 00:44:28;;;;;;;2.42;2.17;;;13.90;99.90;;;;;;5035500;28;20146;-56
2022/08/14 00:47:07;;;;;;;4.30;2.15;;;14.00;99.90;;;;;;5036138;28;20076;-57
2022/08/14 00:49:36;;;;;;;5.50;2.00;;;14.00;99.90;;;;;;5035409;28;20048;-57
2022/08/14 00:52:12;;;;;;;4.55;2.55;;;14.00;99.90;;;;;;5035706;28;20049;-55
2022/08/14 00:54:45;;;;;;;4.57;2.78;;;14.00;99.90;;;;;;5036174;28;20057;-57
2022/08/14 00:57:12;;;;;;;7.30;2.22;;;13.90;99.90;;;;;;5051174;28;20040;-57
2022/08/14 00:59:40;;;;;;;7.57;2.10;;;13.90;99.90;;;;;;5056063;28;20501;-55
2022/08/14 01:02:07;;;;;;;3.25;2.08;;;13.90;99.90;;;;;;5055602;28;20056;-57
2022/08/14 01:04:38;;;;;;;3.22;2.38;;;13.90;99.90;;;;;;5054408;28;20544;-56
2022/08/14 01:07:22;;;;;;;1.75;1.65;;;13.80;99.90;;;;;;5054991;28;20402;-57
2022/08/14 01:09:52;;;;;;;3.00;2.03;;;13.80;99.90;;;;;;5055549;28;20256;-55
2022/08/14 01:12:20;;;;;;;5.55;2.00;;;13.70;99.90;;;;;;5054426;28;20207;-55
2022/08/14 01:14:57;;;;;;;2.42;1.85;;;13.70;99.90;;;;;;5053595;28;20410;-55
2022/08/14 01:21:02;;;;;;;2.65;2.03;;;13.70;99.90;;;;;;5033015;28;20283;-55
2022/08/14 01:23:09;;;;;;;2.20;2.00;;;13.60;99.90;;;;;;5033479;28;20379;-57
2022/08/14 01:25:48;;;;;;;3.35;2.60;;;13.60;99.90;;;;;;5034208;28;20241;-56
2022/08/14 01:28:19;;;;;;;4.35;2.33;;;13.60;99.90;;;;;;5033364;28;20424;-56
2022/08/14 01:31:11;;;;;;;2.10;1.90;;;13.60;99.90;;;;;;5034176;28;20154;-55
2022/08/14 01:33:43;;;;;;;2.53;2.15;;;13.50;99.90;;;;;;5033416;28;20290;-56
2022/08/14 01:36:35;;;;;;;2.47;2.00;;;13.60;99.90;;;;;;5034126;28;20041;-55
2022/08/14 01:39:08;;;;;;;2.25;2.05;;;13.50;99.90;;;;;;5033185;28;20041;-55
2022/08/14 01:41:41;;;;;;;2.85;2.22;;;13.50;99.90;;;;;;5033669;28;20333;-56
2022/08/14 01:44:14;;;;;;;2.55;2.13;;;13.50;99.90;;;;;;5033733;28;20044;-56
2022/08/14 01:47:08;;;;;;;6.00;2.22;;;13.50;99.90;;;;;;5033087;28;20045;-55
2022/08/14 01:49:37;;;;;;;7.50;3.30;;;13.50;99.90;;;;;;5033566;28;20404;-56
2022/08/14 01:52:12;;;;;;;5.72;2.58;;;13.50;99.90;;;;;;5033063;28;20037;-56
2022/08/14 01:55:00;;;;;;;2.17;2.00;;;13.50;99.90;;;;;;5033346;28;20041;-54
2022/08/14 01:57:27;;;;;;;2.13;1.92;;;13.40;99.90;;;;;;5049583;28;20090;-53
2022/08/14 02:00:15;;;;;;;2.45;2.10;;;13.40;99.90;;;;;;5054065;28;20044;-55
2022/08/14 02:02:43;;;;;;;3.47;1.90;;;13.40;99.90;;;;;;5052563;28;20058;-57
2022/08/14 02:05:13;;;;;;;2.15;1.95;;;13.40;99.90;;;;;;5053414;28;20160;-58
2022/08/14 02:07:41;;;;;;;2.55;2.00;;;13.40;99.90;;;;;;5052996;28;20079;-55
2022/08/14 02:10:21;;;;;;;2.35;2.15;;;13.30;99.90;;;;;;5052587;28;20036;-56
2022/08/14 02:12:52;;;;;;;2.95;2.35;;;13.30;99.90;;;;;;5051930;28;20110;-56
2022/08/14 02:15:24;;;;;;;2.45;2.03;;;13.20;99.90;;;;;;5052185;28;20037;-56
2022/08/14 02:17:52;;;;;;;3.05;2.00;;;13.20;99.90;;;;;;5038158;28;20668;-56
2022/08/14 02:20:19;;;;;;;4.22;2.20;;;13.20;99.90;;;;;;5032386;28;20396;-56
2022/08/14 02:22:52;;;;;;;1.92;1.80;;;13.20;99.90;;;;;;5033116;28;20041;-57
2022/08/14 02:25:21;;;;;;;4.10;1.88;;;13.10;99.90;;;;;;5032643;28;20048;-56
2022/08/14 02:27:55;;;;;;;2.47;2.28;;;13.10;99.90;;;;;;5031060;28;20064;-55
2022/08/14 02:30:42;;;;;;;3.47;1.80;;;13.10;99.90;;;;;;5032911;28;20045;-56
2022/08/14 02:33:08;;;;;;;;;;;13.10;99.90;;;;;;5032786;28;20044;-55
2022/08/14 02:35:42;;;;;;;3.67;2.25;;;13.10;99.90;;;;;;5032544;28;20281;-56
2022/08/14 02:38:09;;;;;;;3.95;2.58;;;13.10;99.90;;;;;;5034227;28;20072;-55
2022/08/14 02:40:56;;;;;;;3.25;2.65;;;13.10;99.90;;;;;;5033250;28;20060;-56
2022/08/14 02:43:24;;;;;;;2.83;2.50;;;13.00;99.90;;;;;;5033721;28;20055;-56
2022/08/14 02:46:05;;;;;;;2.70;2.17;;;13.00;99.90;;;;;;5033735;28;20045;-54
2022/08/14 02:48:35;;;;;;;5.88;2.10;;;12.90;99.90;;;;;;5032970;28;20464;-55
2022/08/14 02:51:22;;;;;;;2.60;1.80;;;13.00;99.90;;;;;;5033229;28;20517;-56
2022/08/14 02:53:49;;;;;;;3.13;2.42;;;12.90;99.90;;;;;;5033002;28;20045;-57
2022/08/14 02:56:18;;;;;;;3.20;2.45;;;12.90;99.90;;;;;;5041178;28;20037;-57
2022/08/14 02:59:08;;;;;;;5.10;2.28;;;12.90;99.90;;;;;;5053013;28;20052;-55
2022/08/14 03:01:36;;;;;;;6.30;1.92;;;12.90;99.90;;;;;;5035657;28;20127;-56
2022/08/14 03:04:17;;;;;;;3.58;1.90;;;12.80;99.90;;;;;;5032899;28;20052;-54
2022/08/14 03:06:48;;;;;;;2.60;2.40;;;12.90;99.90;;;;;;5034497;28;20056;-57
2022/08/14 03:09:28;;;;;;;5.00;2.20;;;12.90;99.90;;;;;;5034068;28;20053;-57
2022/08/14 03:12:15;;;;;;;2.20;2.00;;;12.80;99.90;;;;;;5053462;28;20521;-55
2022/08/14 03:14:57;;;;;;;2.25;2.05;;;12.80;99.90;;;;;;5052331;28;20183;-54
2022/08/14 03:17:24;;;;;;;2.65;2.13;;;12.80;99.90;;;;;;5048923;28;20478;-56
2022/08/14 03:19:51;;;;;;;3.47;2.33;;;12.80;99.90;;;;;;5031312;28;20209;-55
2022/08/14 03:22:18;;;;;;;5.88;2.53;;;12.80;99.90;;;;;;5033395;28;20481;-55
2022/08/14 03:24:44;;;;;;;3.78;2.67;;;12.80;99.90;;;;;;5037753;28;20598;-56
2022/08/14 03:27:12;;;;;;;3.00;2.75;;;12.80;99.90;;;;;;5036984;28;20228;-56
2022/08/14 03:29:39;;;;;;;2.70;1.98;;;12.80;99.90;;;;;;5037648;28;20057;-56
2022/08/14 03:32:07;;;;;;;10.40;2.60;;;12.80;99.90;;;;;;5037076;28;20048;-55
2022/08/14 03:34:34;;;;;;;2.15;2.03;;;12.70;99.90;;;;;;5037231;28;20120;-55
2022/08/14 03:37:19;;;;;;;3.55;2.53;;;12.70;99.90;;;;;;5037495;28;20041;-55
2022/08/14 03:40:06;;;;;;;3.47;2.22;;;12.80;99.90;;;;;;5037618;28;20692;-56
2022/08/14 03:42:38;;;;;;;2.63;2.42;;;12.80;99.90;;;;;;5036637;28;20045;-54
2022/08/14 03:45:05;;;;;;;2.58;1.90;;;12.80;99.90;;;;;;5037210;28;20049;-56
2022/08/14 03:47:52;;;;;;;4.32;2.00;;;12.80;99.90;;;;;;5037349;28;20053;-55
2022/08/14 03:50:25;;;;;;;3.28;2.38;;;12.80;99.90;;;;;;5037066;28;20060;-52
2022/08/14 03:53:00;;;;;;;2.30;2.08;;;12.80;99.90;;;;;;5037107;28;20041;-55
2022/08/14 03:55:27;;;;;;;3.55;2.80;;;12.80;99.90;;;;;;5037636;28;20045;-56
2022/08/14 03:57:57;;;;;;;3.33;2.50;;;12.80;99.90;;;;;;5056536;28;20043;-55
2022/08/14 04:00:28;;;;;;;3.05;2.47;;;12.80;99.90;;;;;;5056385;28;20110;-55
2022/08/14 04:03:13;;;;;;;3.22;2.33;;;12.80;99.90;;;;;;5056835;28;20056;-56
2022/08/14 04:05:50;;;;;;;2.60;2.40;;;12.70;99.90;;;;;;5056175;28;20055;-53
2022/08/14 04:08:17;;;;;;;;;;;12.70;99.90;;;;;;5057698;28;20064;-56
2022/08/14 04:10:58;;;;;;;2.70;2.47;;;12.70;99.90;;;;;;5055943;28;20147;-56
2022/08/14 04:13:28;;;;;;;3.95;2.17;;;12.70;99.90;;;;;;5056266;28;20685;-55
2022/08/14 04:16:00;;;;;;;2.60;2.25;;;12.70;99.90;;;;;;5055394;28;20036;-56
2022/08/14 04:18:31;;;;;;;2.40;1.95;;;12.70;99.90;;;;;;5049317;28;20114;-57
2022/08/14 04:21:00;;;;;;;2.28;1.98;;;12.70;99.90;;;;;;5033939;28;20052;-56
2022/08/14 04:23:27;;;;;;;2.80;1.98;;;12.70;99.90;;;;;;5034659;28;20045;-55
2022/08/14 04:26:03;;;;;;;4.32;2.10;;;12.70;99.90;;;;;;5033815;28;20053;-57
2022/08/14 04:28:38;;;;;;;3.08;2.30;;;12.70;99.90;;;;;;5036571;28;20037;-57
2022/08/14 04:31:25;;;;;;;3.40;2.40;;;12.70;99.90;;;;;;5036963;28;20183;-55
2022/08/14 04:34:12;;;;;;;2.38;2.13;;;12.60;99.90;;;;;;5034194;28;20582;-56
2022/08/14 04:45:22;;;;;;;5.28;2.78;;;12.70;99.90;;;;;;5034583;28;20061;-56
2022/08/14 04:50:50;;;;;;;2.92;2.25;;;12.70;99.90;;;;;;5034553;28;20167;-58
2022/08/14 04:53:22;;;;;;;3.75;2.20;;;12.70;99.90;;;;;;5034798;28;20372;-57
2022/08/14 04:56:00;;;;;;;2.60;2.25;;;12.80;99.90;;;;;;5039215;28;20048;-57
2022/08/14 04:58:30;;;;;;;2.60;1.92;;;12.90;99.90;;;;;;5054925;28;20659;-55
2022/08/14 05:01:01;;;;;;;3.67;2.92;;;12.90;99.90;;;;;;5054563;28;20457;-54
2022/08/14 05:03:30;;;;;;;2.78;2.58;;;13.00;99.90;;;;;;5053902;28;20048;-57
2022/08/14 05:06:00;;;;;;;2.97;2.67;;;13.00;99.90;;;;;;5052316;28;20141;-54
2022/08/14 05:08:30;;;;;;;2.88;2.05;;;13.00;99.90;;;;;;5054246;28;20052;-57
2022/08/14 05:11:18;;;;;;;2.78;2.47;;;13.00;99.90;;;;;;5053962;28;20364;-56
2022/08/14 05:13:45;;;;;;;3.42;2.63;;;13.10;99.90;;;;;;5052638;28;20072;-55
2022/08/14 05:16:32;;;;;;;2.73;2.23;;;13.10;99.90;;;;;;5017048;28;1092841;-57
2022/08/14 05:18:59;;;;;;;2.72;2.20;;;13.10;99.90;;;;;;5053850;28;20048;-56
2022/08/14 05:21:46;;;;;;;2.53;2.33;;;13.10;99.90;;;;;;5034138;28;20555;-51
2022/08/14 05:24:27;;;;;;;6.80;2.22;;;13.20;99.90;;;;;;5034754;28;20033;-52
2022/08/14 05:26:55;;;;;;;2.83;2.58;;;13.20;99.90;;;;;;5033767;28;20474;-49
2022/08/14 05:29:22;;;;;;;2.58;2.38;;;13.20;99.90;;;;;;5035299;28;20064;-48
2022/08/14 05:31:49;;;;;;;4.30;2.55;;;13.30;99.90;;;;;;5035631;28;20491;-50
2022/08/14 05:34:28;;;;;;;3.22;2.80;;;13.40;99.90;;;;;;5034759;28;20400;-50
2022/08/14 05:37:01;;;;;;;3.03;2.10;;;13.50;99.90;;;;;;5035705;28;20110;-51
2022/08/14 05:39:30;;;;;;;3.08;2.33;;;13.60;99.90;;;;;;5034585;28;20418;-49
2022/08/14 05:41:57;;;;;;;3.70;2.88;;;13.60;99.90;;;;;;5035311;28;20052;-51
2022/08/14 05:44:26;;;;;;;3.50;2.45;;;13.70;99.90;;;;;;5034619;28;20056;-51
2022/08/14 05:46:57;;;;;;;6.97;2.85;;;13.80;99.90;;;;;;5034228;28;20047;-49
2022/08/14 05:49:24;;;;;;;2.58;2.28;;;13.90;99.90;;;;;;5034666;28;20564;-50
2022/08/14 05:52:01;;;;;;;2.65;2.10;;;13.90;99.90;;;;;;5033095;28;20556;-49
2022/08/14 05:54:29;;;;;;;5.38;2.70;;;14.00;99.90;;;;;;5043899;28;20499;-49
2022/08/14 05:57:03;;;;;;;5.45;2.15;;;14.10;99.90;;;;;;5054371;28;20952;-49
2022/08/14 05:59:30;;;;;;;3.58;2.53;;;14.20;99.90;;;;;;5055264;28;20064;-48
2022/08/14 06:02:07;;;;;;;2.67;2.28;;;14.30;99.90;;;;;;5054383;28;20044;-50
2022/08/14 06:04:37;;;;;;;6.50;2.42;;;14.50;99.90;;;;;;5054728;28;20131;-50
2022/08/14 06:07:04;;;;;;;2.35;2.15;;;14.60;99.90;;;;;;5054659;28;20236;-50
2022/08/14 06:09:31;;;;;;;2.40;2.20;;;14.70;99.90;;;;;;5055310;28;20052;-49
2022/08/14 06:12:07;;;;;;;2.75;2.10;;;14.80;99.90;;;;;;5055019;28;20440;-49
2022/08/14 06:14:34;;;;;;;3.20;2.58;;;14.90;99.90;;;;;;5053712;28;20040;-49
2022/08/14 06:17:03;;;;;;;7.78;3.00;;;15.00;99.90;;;;;;5054781;28;20773;-48
2022/08/14 06:19:30;;;;;;;2.38;2.17;;;15.20;99.90;;;;;;5054811;28;20689;-47
2022/08/14 06:21:57;;;;;;;3.00;2.55;;;15.30;99.90;;;;;;5041329;28;20056;-46
2022/08/14 06:24:26;;;;;;;2.28;2.03;;;15.40;99.90;;;;;;5032411;28;20049;-46
2022/08/14 06:27:01;;;;;;;3.55;1.77;;;15.40;99.90;;;;;;5049152;28;20051;-47
2022/08/14 06:29:33;;;;;;;2.20;2.00;;;15.60;99.90;;;;;;5054312;28;20037;-46
2022/08/14 06:32:01;;;;;;;3.28;2.58;;;15.60;99.90;;;;;;5054349;28;20048;-46
2022/08/14 06:34:49;;;;;;;3.03;2.50;;;15.80;99.90;;;;;;5054071;28;20393;-53
2022/08/14 06:37:39;;;;;;;2.50;2.30;;;15.80;99.90;;;;;;5054291;28;20122;-54
2022/08/14 06:40:08;;;;;;;3.08;2.22;;;16.00;99.90;;;;;;5055130;28;20044;-53
2022/08/14 06:43:04;;;;;;;5.10;2.75;;;16.10;99.90;;;;;;5054449;28;20141;-55
2022/08/14 06:45:35;;;;;;;3.85;2.40;;;16.20;99.90;;;;;;5054425;28;20072;-54
2022/08/14 06:48:18;;;;;;;3.40;2.28;;;16.40;99.90;;;;;;5054115;28;20036;-54
2022/08/14 06:50:47;;;;;;;3.03;2.08;;;16.50;99.90;;;;;;5055056;28;20453;-55
2022/08/14 06:53:15;;;;;;;3.00;2.10;;;16.60;99.90;;;;;;5052711;28;20415;-54
2022/08/14 06:55:44;;;;;;;4.65;2.05;;;16.80;99.90;;;;;;5054014;28;20050;-54
2022/08/14 06:58:27;;;;;;;4.22;2.83;;;16.90;99.90;;;;;;5053752;28;20121;-51
2022/08/14 07:06:49;;;;;;;2.67;2.13;;;17.30;99.90;;;;;;5053131;28;20074;-52
2022/08/14 07:09:17;;;;;;;3.53;2.85;;;17.50;99.90;;;;;;5053187;28;20054;-57
2022/08/14 07:11:50;;;;;;;5.90;3.45;;;17.70;99.90;;;;;;5038946;28;20036;-53
2022/08/14 07:14:17;;;;;;;2.42;2.00;;;17.80;99.90;;;;;;5053193;28;20045;-58
2022/08/14 07:16:44;;;;;;;;;;;18.00;99.90;;;;;;5054530;28;20047;-57
2022/08/14 07:19:11;;;;;;;3.55;1.80;;;18.10;99.90;;;;;;5052893;28;19932;-55
2022/08/14 07:21:38;;;;;;;3.72;2.20;;;18.20;99.90;;;;;;5050380;28;20121;-57
2022/08/14 07:24:05;;;;;;;5.78;3.33;;;18.40;99.90;;;;;;5045057;28;20094;-57
2022/08/14 07:26:35;;;;;;;2.45;2.20;;;18.50;99.90;;;;;;5052062;28;20094;-56
2022/08/14 07:29:04;;;;;;;3.47;2.28;;;18.70;99.90;;;;;;5052137;28;20048;-55
2022/08/14 07:31:32;;;;;;;4.18;2.55;;;18.90;99.90;;;;;;5053230;28;20106;-54
2022/08/14 07:33:59;;;;;;;3.80;2.35;;;19.10;99.90;;;;;;5053517;28;20048;-56
2022/08/14 07:36:29;;;;;;;2.00;1.80;;;19.20;99.90;;;;;;5052297;28;20131;-58
2022/08/14 07:39:00;;;;;;;5.05;2.13;;;19.30;99.90;;;;;;5053910;28;20115;-57
2022/08/14 07:41:29;;;;;;;2.58;2.38;;;19.40;99.90;;;;;;5052626;28;20056;-57
2022/08/14 07:44:01;;;;;;;2.17;1.95;;;19.60;99.90;;;;;;5053491;28;20074;-57
2022/08/14 07:46:48;;;;;;;2.28;1.83;;;19.80;99.90;;;;;;5054263;28;20604;-59
2022/08/14 07:49:15;;;;;;;4.15;1.90;;;20.00;99.70;;;;;;5052357;28;20068;-57
2022/08/14 07:51:44;;;;;;;3.40;2.10;;;20.20;98.30;;;;;;5053657;28;20047;-56
2022/08/14 07:54:17;;;;;;;4.75;2.30;;;20.40;96.10;;;;;;5053188;28;20106;-54
2022/08/14 07:57:00;;;;;;;5.25;1.67;;;20.60;93.10;;;;;;5052238;28;20041;-52
2022/08/14 07:59:40;;;;;;;4.05;2.08;;;20.90;92.40;;;;;;5053397;28;20068;-54
2022/08/14 08:02:12;;;;;;;2.30;2.10;;;21.50;86.90;;;;;;5053769;28;20040;-55
2022/08/14 08:04:57;;;;;;;2.38;2.17;;;22.30;80.90;;;;;;5053231;28;21037;-54
2022/08/14 08:07:29;;;;;;;3.17;2.00;;;23.20;75.80;;;;;;5035955;28;20056;-54
2022/08/14 08:09:58;;;;;;;1.63;1.52;;;23.60;71.10;;;;;;5055224;28;20113;-53
2022/08/14 08:12:27;;;;;;;2.58;1.98;;;24.00;71.50;;;;;;5056793;28;20437;-52
2022/08/14 08:14:59;;;;;;;4.72;2.22;;;24.50;68.90;;;;;;5056249;28;20059;-56
2022/08/14 08:17:36;;;;;;;4.10;2.20;;;24.90;66.60;;;;;;5057179;28;20044;-57
2022/08/14 08:20:09;;;;;;;2.53;1.80;;;25.20;64.40;;;;;;5057481;28;20053;-57
2022/08/14 08:22:39;;;;;;;2.58;2.25;;;25.40;63.10;;;;;;5049695;28;20195;-56
2022/08/14 08:25:09;;;;;;;3.70;2.42;;;25.60;63.10;;;;;;5035655;28;20121;-56
2022/08/14 08:27:41;;;;;;;2.38;1.98;;;25.80;61.30;;;;;;5036361;28;20068;-55
2022/08/14 08:30:11;;;;;;;7.80;1.95;;;26.10;61.50;;;;;;5035818;28;20135;-56
2022/08/14 08:32:40;;;;;;;8.02;2.55;;;26.40;62.20;;;;;;5036222;28;20036;-59
2022/08/14 08:35:20;;;;;;;3.90;2.35;;;26.60;58.90;;;;;;5036365;28;20048;-57
2022/08/14 08:37:48;;;;;;;4.05;1.98;;;26.70;58.80;;;;;;5036481;28;20051;-58
2022/08/14 08:40:39;;;;;;;4.72;2.22;;;26.70;58.50;;;;;;5036011;28;20048;-55
2022/08/14 08:43:22;;;;;;;5.60;2.03;;;27.00;58.40;;;;;;5036460;28;20059;-57
2022/08/14 08:46:01;;;;;;;2.65;2.38;;;27.20;57.60;;;;;;5036647;28;20052;-58
2022/08/14 08:48:46;;;;;;;2.35;1.98;;;27.50;54.20;;;;;;5036253;28;20045;-56
2022/08/14 08:51:30;;;;;;;4.03;2.38;;;27.60;55.10;;;;;;5036321;28;20668;-61
2022/08/14 08:54:03;;;;;;;3.70;2.75;;;27.80;54.00;;;;;;5034500;28;20051;-61
2022/08/14 08:56:36;;;;;;;4.72;2.55;;;27.90;55.40;;;;;;5044797;28;20028;-61
2022/08/14 08:59:21;;;;;;;2.55;2.20;;;28.10;55.00;;;;;;5056485;28;20676;-62
2022/08/14 09:02:06;;;;;;;2.70;2.38;;;28.20;56.30;;;;;;5055770;28;20139;-61
2022/08/14 09:04:43;;;;;;;2.35;2.13;;;28.30;57.10;;;;;;5056083;28;20071;-62
2022/08/14 09:07:25;;;;;;;10.52;2.97;;;28.40;56.00;;;;;;5055980;28;20190;-61
2022/08/14 09:09:55;;;;;;;3.22;2.67;;;28.50;58.70;;;;;;5056330;28;20047;-61
2022/08/14 09:12:25;;;;;;;2.97;2.67;;;28.60;57.70;;;;;;5054119;28;20056;-61
2022/08/14 09:14:54;;;;;;;6.32;3.25;;;28.70;59.30;;;;;;5053796;28;20044;-62
2022/08/14 09:17:21;;;;;;;3.65;2.35;;;28.80;58.60;;;;;;5055577;28;20036;-61
2022/08/14 09:19:52;;;;;;;4.90;2.40;;;28.80;58.50;;;;;;5055594;28;20036;-61
2022/08/14 09:22:20;;;;;;;2.75;2.40;;;29.00;57.50;;;;;;5054749;28;20114;-61
2022/08/14 09:25:07;;;;;;;2.92;2.38;;;29.00;57.30;;;;;;5039869;28;20063;-60
2022/08/14 09:27:36;;;;;;;5.65;2.25;;;29.00;56.50;;;;;;5055894;28;20044;-61
2022/08/14 09:30:10;;;;;;;2.75;2.55;;;29.00;54.00;;;;;;5053836;28;20152;-61
2022/08/14 09:33:03;;;;;;;3.53;2.47;;;28.90;54.30;;;;;;5054842;28;20105;-61
2022/08/14 09:35:52;;;;;;;3.42;2.13;;;28.80;53.70;;;;;;5055200;28;20044;-61
2022/08/14 09:38:53;;;;;;;3.55;2.75;;;28.70;54.70;;;;;;5055599;28;20502;-61
2022/08/14 09:41:36;;;;;;;6.20;2.60;;;28.80;55.60;;;;;;5055214;28;20040;-61
2022/08/14 09:44:46;;;;;;;3.08;2.60;;;28.80;54.60;;;;;;5053615;28;20114;-61
2022/08/14 09:47:15;;;;;;;5.03;2.42;;;29.00;54.90;;;;;;5055535;28;20044;-61
2022/08/14 09:49:42;;;;;;;3.00;2.70;;;29.00;54.50;;;;;;5055663;28;20122;-61
2022/08/14 09:52:20;;;;;;;4.55;3.63;;;29.10;55.00;;;;;;5053901;28;20044;-61
2022/08/14 09:55:00;;;;;;;3.40;2.65;;;29.40;53.40;;;;;;5055257;28;20041;-62
2022/08/14 09:57:29;;;;;;;6.85;2.78;;;29.50;53.00;;;;;;5058208;28;20040;-62
2022/08/14 09:59:57;;;;;;;2.50;2.03;;;29.60;55.70;;;;;;5057116;28;20052;-61
2022/08/14 10:02:27;;;;;;;4.72;2.63;;;29.70;54.70;;;;;;5054814;28;20044;-62
2022/08/14 10:05:10;;;;;;;6.60;2.72;;;30.00;53.90;;;;;;5054873;28;20123;-61
2022/08/14 10:07:51;;;;;;;2.70;2.50;;;30.20;53.00;;;;;;5054663;28;20727;-61
2022/08/14 10:10:28;;;;;;;3.15;2.33;;;30.30;52.90;;;;;;5054695;28;20119;-61
2022/08/14 10:13:02;;;;;;;3.17;2.65;;;30.60;53.20;;;;;;5053771;28;20051;-61
2022/08/14 10:15:35;;;;;;;3.05;2.55;;;30.80;51.70;;;;;;5053097;28;20040;-61
2022/08/14 10:18:08;;;;;;;3.58;2.63;;;31.00;51.80;;;;;;5052508;28;20044;-61
2022/08/14 10:20:59;;;;;;;6.35;3.33;;;31.20;51.40;;;;;;5055079;28;20618;-61
2022/08/14 10:23:44;;;;;;;3.65;2.80;;;31.40;50.00;;;;;;5054581;28;20462;-62
2022/08/14 10:26:16;;;;;;;3.92;2.03;;;31.50;49.10;;;;;;5037522;28;20041;-61
2022/08/14 10:29:04;;;;;;;3.38;1.98;;;31.30;50.00;;;;;;5035171;28;20725;-62
2022/08/14 10:31:56;;;;;;;2.75;2.55;;;31.20;51.30;;;;;;5035394;28;20051;-62
2022/08/14 10:34:30;;;;;;;3.83;2.40;;;31.30;50.40;;;;;;5034989;28;20044;-62
2022/08/14 10:37:11;;;;;;;4.35;2.33;;;31.40;50.50;;;;;;5034650;28;20041;-62
2022/08/14 10:39:42;;;;;;;2.63;2.40;;;31.50;50.70;;;;;;5035078;28;20083;-62
2022/08/14 10:42:40;;;;;;;;;;;31.70;50.60;;;;;;5034602;28;20432;-62
2022/08/14 10:45:23;;;;;;;3.33;2.40;;;31.90;49.90;;;;;;5016424;28;20555;-62
2022/08/14 10:47:52;;;;;;;2.75;2.10;;;32.00;50.10;;;;;;5032530;28;20504;-62
2022/08/14 10:50:40;;;;;;;2.92;2.65;;;32.10;49.80;;;;;;5033845;28;20052;-62
2022/08/14 10:53:08;;;;;;;2.50;2.30;;;32.20;49.80;;;;;;5032838;28;20539;-61
2022/08/14 10:55:38;;;;;;;4.85;2.10;;;32.20;49.60;;;;;;5034232;28;20053;-61
2022/08/14 10:58:12;;;;;;;4.63;2.15;;;32.40;49.00;;;;;;5033636;28;20491;-62
2022/08/14 11:00:52;;;;;;;2.17;1.98;;;32.50;47.50;;;;;;5032762;28;20171;-62
2022/08/14 11:03:24;;;;;;;4.18;2.30;;;32.50;47.90;;;;;;5031434;28;20057;-62
2022/08/14 11:06:19;;;;;;;6.38;2.10;;;32.50;44.90;;;;;;5033971;28;20072;-61
2022/08/14 11:08:47;;;;;;;3.47;1.85;;;32.40;43.80;;;;;;5031983;28;20107;-61
2022/08/14 11:11:18;;;;;;;5.05;2.15;;;32.30;45.20;;;;;;5048292;28;20056;-61
2022/08/14 11:13:45;;;;;;;2.28;1.58;;;32.30;45.30;;;;;;5036530;28;20041;-62
2022/08/14 11:16:17;;;;;;;5.07;2.10;;;32.30;45.80;;;;;;5053846;28;20044;-62
2022/08/14 11:18:50;;;;;;;6.65;1.92;;;32.40;44.60;;;;;;5052920;28;20037;-62
2022/08/14 11:21:21;;;;;;;3.75;1.90;;;32.30;42.40;;;;;;5053722;28;20135;-62
2022/08/14 11:23:49;;;;;;;3.53;1.85;;;32.10;41.70;;;;;;5054097;28;20045;-62
2022/08/14 11:26:22;;;;;;;3.15;1.70;;;31.70;42.50;;;;;;5041206;28;20037;-62
2022/08/14 11:28:50;;;;;;;5.85;1.98;;;31.50;42.40;;;;;;5032024;28;20186;-62
2022/08/14 11:31:22;;;;;;;5.20;2.15;;;31.20;41.30;;;;;;5032669;28;20110;-62
2022/08/14 11:33:56;;;;;;;3.60;1.85;;;31.00;42.40;;;;;;5033483;28;20041;-62
2022/08/14 11:36:27;;;;;;;2.53;2.00;;;30.90;42.20;;;;;;5032669;28;20041;-63
2022/08/14 11:39:23;;;;;;;3.50;2.08;;;30.90;44.30;;;;;;5032714;28;20127;-62
2022/08/14 11:42:06;;;;;;;4.85;2.10;;;30.90;45.10;;;;;;5033848;28;20095;-63
2022/08/14 11:44:57;;;;;;;3.47;2.25;;;31.00;45.60;;;;;;5035427;28;20064;-62
2022/08/14 11:47:27;;;;;;;2.38;2.03;;;31.30;45.30;;;;;;5037539;28;20041;-63
2022/08/14 11:50:18;;;;;;;2.10;1.92;;;31.50;42.90;;;;;;5036199;28;20080;-63
2022/08/14 11:53:04;;;;;;;2.15;1.63;;;31.70;45.10;;;;;;5037654;28;20041;-63
2022/08/14 11:55:35;;;;;;;1.98;1.77;;;31.80;42.70;;;;;;5039281;28;20107;-61
2022/08/14 11:58:09;;;;;;;3.65;2.03;;;31.80;42.50;;;;;;5055167;28;20143;-62
2022/08/14 12:00:48;;;;;;;6.20;2.03;;;31.80;42.20;;;;;;5056767;28;20039;-60
2022/08/14 12:03:15;;;;;;;3.22;1.80;;;31.70;41.40;;;;;;5057032;28;20052;-63
2022/08/14 12:06:04;;;;;;;2.95;1.98;;;31.60;41.30;;;;;;5056774;28;20127;-63
2022/08/14 12:08:35;;;;;;;5.07;2.22;;;31.70;41.30;;;;;;5056965;28;20442;-63
2022/08/14 12:11:06;;;;;;;2.33;2.00;;;31.60;41.00;;;;;;5056622;28;20044;-63
2022/08/14 12:13:35;;;;;;;1.80;1.70;;;31.50;41.10;;;;;;5056113;28;20056;-63
2022/08/14 12:16:08;;;;;;;3.22;2.28;;;31.40;43.40;;;;;;5054966;28;20054;-64
2022/08/14 12:18:49;;;;;;;3.15;2.13;;;31.20;41.90;;;;;;5056228;28;20045;-64
2022/08/14 12:21:22;;;;;;;4.90;2.20;;;31.30;44.20;;;;;;5057240;28;20043;-63
2022/08/14 12:24:08;;;;;;;3.80;1.92;;;31.40;42.10;;;;;;5057271;28;20036;-64
2022/08/14 12:26:55;;;;;;;3.55;2.63;;;31.40;42.90;;;;;;5055818;28;20052;-63
2022/08/14 12:29:24;;;;;;;2.25;2.05;;;31.40;42.90;;;;;;5055514;28;20055;-64
2022/08/14 12:31:59;;;;;;;2.78;1.92;;;31.30;42.20;;;;;;5056201;28;20045;-63
2022/08/14 12:34:31;;;;;;;2.00;1.80;;;31.20;42.90;;;;;;5055682;28;20044;-62
2022/08/14 12:37:07;;;;;;;1.98;1.88;;;31.20;43.90;;;;;;5056721;28;20463;-65
2022/08/14 12:39:35;;;;;;;2.63;1.98;;;31.20;43.40;;;;;;5055873;28;20036;-63
2022/08/14 12:42:06;;;;;;;8.40;2.55;;;31.20;44.40;;;;;;5053314;28;20097;-62
2022/08/14 12:44:36;;;;;;;2.88;1.63;;;31.10;43.40;;;;;;5052407;28;20052;-62
2022/08/14 12:47:15;;;;;;;2.58;2.10;;;31.00;43.10;;;;;;5057103;28;20639;-63
2022/08/14 12:49:52;;;;;;;2.67;1.85;;;31.00;42.10;;;;;;5054618;28;20048;-63
2022/08/14 12:52:39;;;;;;;2.35;1.73;;;30.80;43.60;;;;;;5056644;28;20123;-62
2022/08/14 12:55:26;;;;;;;2.33;2.13;;;30.80;44.10;;;;;;5055613;28;20309;-62
2022/08/14 12:58:15;;;;;;;6.13;2.00;;;30.70;43.70;;;;;;5057079;28;20102;-63
2022/08/14 13:01:02;;;;;;;8.30;2.10;;;30.70;45.60;;;;;;5053912;28;20036;-63
2022/08/14 13:03:46;;;;;;;2.25;2.05;;;30.70;44.20;;;;;;5055009;28;20044;-63
2022/08/14 13:06:18;;;;;;;2.08;1.80;;;30.60;42.90;;;;;;5056580;28;20047;-63
2022/08/14 13:08:45;;;;;;;2.33;2.20;;;30.50;42.50;;;;;;5056334;28;20044;-63
2022/08/14 13:11:20;;;;;;;6.72;2.85;;;30.30;42.70;;;;;;5055199;28;20048;-63
2022/08/14 13:13:55;;;;;;;3.22;2.92;;;30.20;42.20;;;;;;5054510;28;20044;-63
2022/08/14 13:16:23;;;;;;;5.20;3.63;;;29.90;41.60;;;;;;5054578;28;20037;-64
2022/08/14 13:19:09;;;;;;;4.70;3.60;;;29.80;42.30;;;;;;5055477;28;20049;-64
2022/08/14 13:21:44;;;;;;;7.53;4.13;;;29.60;41.70;;;;;;5055483;28;20499;-63
2022/08/14 13:24:32;;;;;;;9.27;4.40;;;29.50;41.70;;;;;;5055069;28;20115;-64
2022/08/14 13:27:02;;;;;;;4.55;3.70;;;29.30;41.70;;;;;;5052629;28;20387;-64
2022/08/14 13:29:34;;;;;;;4.30;3.35;;;29.20;41.50;;;;;;5038019;28;20530;-63
2022/08/14 13:32:04;;;;;;;4.32;3.92;;;29.10;40.70;;;;;;5053816;28;20048;-63
2022/08/14 13:34:32;;;;;;;7.00;4.03;;;29.10;41.10;;;;;;5053015;28;20825;-63
2022/08/14 13:37:00;;;;;;;5.32;4.38;;;29.00;41.50;;;;;;5053737;28;20498;-63
2022/08/14 13:39:31;;;;;;;5.05;4.22;;;29.00;41.10;;;;;;5054497;28;20044;-63
2022/08/14 13:42:07;;;;;;;5.97;3.85;;;29.10;42.40;;;;;;5056273;28;20569;-64
2022/08/14 13:44:40;;;;;;;6.35;4.28;;;29.10;43.00;;;;;;5053037;28;20072;-63
2022/08/14 13:47:10;;;;;;;6.25;3.80;;;29.10;42.60;;;;;;5053366;28;20503;-64